Taiyo — JD3794 — position and weather

sailwx.info

Track history (hours):
 
Tides and Currents Weather Stations Pressure Air Temp Water Temp Dewpoint Dewpoint Depression Visibility Wind Speed Wind Dir Waves Ship Positions

Taiyo

Last reported at 2017-Oct-18 10:48 UTC. Time now 2017-Oct-18 11:18 UTC.
Position N 34°34' E 135°27'.

Length 58 m; draft 3 m.

Type: Cargo ship. MMSI: 431006179.

Date/timePositionNaut miles runAvg speedWind from/ knotsBaromVisibWave heightAir tempDewpointWater temp
2017-Oct-18 10:48N 34°34' E 135°27'0 0.0
2017-Oct-18 05:14N 34°34' E 135°27'0 1.5
2017-Oct-18 04:57N 34°34' E 135°27'0 0.1
2017-Oct-18 04:30N 34°34' E 135°27'0 0.1
2017-Oct-18 04:00N 34°34' E 135°27'0 0.1
2017-Oct-18 03:30N 34°34' E 135°27'0 0.1
2017-Oct-18 03:00N 34°34' E 135°27'0 0.1
2017-Oct-18 02:30N 34°34' E 135°27'1 1.3
2017-Oct-18 02:00N 34°35' E 135°27'4 8.3
2017-Oct-18 01:30N 34°39' E 135°24'1 2.5
2017-Oct-18 00:56N 34°40' E 135°26'0 0.0
2017-Oct-18 00:29N 34°40' E 135°26'0 0.0
2017-Oct-18 00:00N 34°40' E 135°26'0 0.0
2017-Oct-17 23:30N 34°40' E 135°26'0 0.0
2017-Oct-17 22:57N 34°40' E 135°26'0 0.0
2017-Oct-17 22:31N 34°40' E 135°26'0 0.0
2017-Oct-17 22:01N 34°40' E 135°26'2 3.6
2017-Oct-17 21:31N 34°38' E 135°24'5 9.5
2017-Oct-17 21:01N 34°38' E 135°18'5 9.7
2017-Oct-17 20:31N 34°37' E 135°13'5 9.8
2017-Oct-17 20:00N 34°35' E 135°07'5 9.6
2017-Oct-17 19:30N 34°37' E 135°01'  
2017-Oct-10 11:54N 34°37' E 134°56'6 9.6
2017-Oct-10 11:18N 34°36' E 135°03'310.2
2017-Oct-10 11:00N 34°36' E 135°07'510.9
2017-Oct-10 10:30N 34°37' E 135°14'610.9
2017-Oct-10 10:00N 34°37' E 135°20'510.5
2017-Oct-10 09:30N 34°35' E 135°26'1 0.3
2017-Oct-10 05:35N 34°34' E 135°27'0 0.0
2017-Oct-10 05:27N 34°34' E 135°27'0 0.0
2017-Oct-10 05:00N 34°34' E 135°27'0 0.0
2017-Oct-10 04:08N 34°34' E 135°27'0 0.0
2017-Oct-10 03:57N 34°34' E 135°27'0 0.0
2017-Oct-10 03:30N 34°34' E 135°27'0 0.0
2017-Oct-10 03:00N 34°34' E 135°27'0 0.0
2017-Oct-10 02:29N 34°34' E 135°27'0 0.0
2017-Oct-10 01:59N 34°34' E 135°27'0 0.0
2017-Oct-10 01:23N 34°34' E 135°27'0 0.0
2017-Oct-10 00:46N 34°34' E 135°27'0 0.0
2017-Oct-10 00:28N 34°34' E 135°27'0 0.0
2017-Oct-09 23:56N 34°34' E 135°27'0 0.0
2017-Oct-09 23:29N 34°34' E 135°27'0 0.0
2017-Oct-09 16:05N 34°34' E 135°27'0 0.1
2017-Oct-09 13:58N 34°34' E 135°27'0 0.5
2017-Oct-09 13:30N 34°34' E 135°27'0 0.0
2017-Oct-09 13:00N 34°34' E 135°27'0 0.0
2017-Oct-09 12:30N 34°34' E 135°27'0 0.0
2017-Oct-09 11:56N 34°34' E 135°27'0 0.0
2017-Oct-09 11:30N 34°34' E 135°27'0 0.0
2017-Oct-09 10:57N 34°34' E 135°27'0 0.0
2017-Oct-09 10:22N 34°34' E 135°27'0 0.1
2017-Oct-09 09:30N 34°34' E 135°27'1 2.7
2017-Oct-09 09:00N 34°35' E 135°26'5 9.7
2017-Oct-09 08:30N 34°36' E 135°20'510.6
2017-Oct-09 08:00N 34°35' E 135°14'611.2
2017-Oct-09 07:30N 34°35' E 135°07'  
Track history (hours):
 
Tides and Currents Weather Stations Pressure Air Temp Water Temp Dewpoint Dewpoint Depression Visibility Wind Speed Wind Dir Waves Ship Positions

Taiyo

Last reported at 2017-Oct-18 10:48 UTC. Time now 2017-Oct-18 11:18 UTC.
Position N 34°34' E 135°27'.

Length 58 m; draft 3 m.

Type: Cargo ship. MMSI: 431006179.

Date/timePositionNaut miles runAvg speedWind from/ knotsBaromVisibWave heightAir tempDewpointWater temp
2017-Oct-18 10:48N 34°34' E 135°27'0 0.0
2017-Oct-18 05:14N 34°34' E 135°27'0 1.5
2017-Oct-18 04:57N 34°34' E 135°27'0 0.1
2017-Oct-18 04:30N 34°34' E 135°27'0 0.1
2017-Oct-18 04:00N 34°34' E 135°27'0 0.1
2017-Oct-18 03:30N 34°34' E 135°27'0 0.1
2017-Oct-18 03:00N 34°34' E 135°27'0 0.1
2017-Oct-18 02:30N 34°34' E 135°27'1 1.3
2017-Oct-18 02:00N 34°35' E 135°27'4 8.3
2017-Oct-18 01:30N 34°39' E 135°24'1 2.5
2017-Oct-18 00:56N 34°40' E 135°26'0 0.0
2017-Oct-18 00:29N 34°40' E 135°26'0 0.0
2017-Oct-18 00:00N 34°40' E 135°26'0 0.0
2017-Oct-17 23:30N 34°40' E 135°26'0 0.0
2017-Oct-17 22:57N 34°40' E 135°26'0 0.0
2017-Oct-17 22:31N 34°40' E 135°26'0 0.0
2017-Oct-17 22:01N 34°40' E 135°26'2 3.6
2017-Oct-17 21:31N 34°38' E 135°24'5 9.5
2017-Oct-17 21:01N 34°38' E 135°18'5 9.7
2017-Oct-17 20:31N 34°37' E 135°13'5 9.8
2017-Oct-17 20:00N 34°35' E 135°07'5 9.6
2017-Oct-17 19:30N 34°37' E 135°01'  
2017-Oct-10 11:54N 34°37' E 134°56'6 9.6
2017-Oct-10 11:18N 34°36' E 135°03'310.2
2017-Oct-10 11:00N 34°36' E 135°07'510.9
2017-Oct-10 10:30N 34°37' E 135°14'610.9
2017-Oct-10 10:00N 34°37' E 135°20'510.5
2017-Oct-10 09:30N 34°35' E 135°26'1 0.3
2017-Oct-10 05:35N 34°34' E 135°27'0 0.0
2017-Oct-10 05:27N 34°34' E 135°27'0 0.0
2017-Oct-10 05:00N 34°34' E 135°27'0 0.0
2017-Oct-10 04:08N 34°34' E 135°27'0 0.0
2017-Oct-10 03:57N 34°34' E 135°27'0 0.0
2017-Oct-10 03:30N 34°34' E 135°27'0 0.0
2017-Oct-10 03:00N 34°34' E 135°27'0 0.0
2017-Oct-10 02:29N 34°34' E 135°27'0 0.0
2017-Oct-10 01:59N 34°34' E 135°27'0 0.0
2017-Oct-10 01:23N 34°34' E 135°27'0 0.0
2017-Oct-10 00:46N 34°34' E 135°27'0 0.0
2017-Oct-10 00:28N 34°34' E 135°27'0 0.0
2017-Oct-09 23:56N 34°34' E 135°27'0 0.0
2017-Oct-09 23:29N 34°34' E 135°27'0 0.0
2017-Oct-09 16:05N 34°34' E 135°27'0 0.1
2017-Oct-09 13:58N 34°34' E 135°27'0 0.5
2017-Oct-09 13:30N 34°34' E 135°27'0 0.0
2017-Oct-09 13:00N 34°34' E 135°27'0 0.0
2017-Oct-09 12:30N 34°34' E 135°27'0 0.0
2017-Oct-09 11:56N 34°34' E 135°27'0 0.0
2017-Oct-09 11:30N 34°34' E 135°27'0 0.0
2017-Oct-09 10:57N 34°34' E 135°27'0 0.0
2017-Oct-09 10:22N 34°34' E 135°27'0 0.1
2017-Oct-09 09:30N 34°34' E 135°27'1 2.7
2017-Oct-09 09:00N 34°35' E 135°26'5 9.7
2017-Oct-09 08:30N 34°36' E 135°20'510.6
2017-Oct-09 08:00N 34°35' E 135°14'611.2
2017-Oct-09 07:30N 34°35' E 135°07'  

Dump ship's entire track history